TimeEDT,TemperatureF,Dew PointF,Humidity,Sea Level PressureIn,VisibilityMPH,Wind Direction,Wind SpeedMPH,Gust SpeedMPH,PrecipitationIn,Events,Conditions,WindDirDegrees,DateUTC
12:15 AM,37.4,35.6,93,29.90,10.0,West,8.1,-,N/A,,Overcast,270,2012-11-02 04:15:00
12:35 AM,37.4,35.6,93,29.91,10.0,West,10.4,-,N/A,,Overcast,260,2012-11-02 04:35:00
12:55 AM,37.4,35.6,93,29.91,10.0,West,6.9,-,N/A,,Overcast,260,2012-11-02 04:55:00
1:15 AM,35.6,33.8,93,29.90,10.0,West,3.5,-,N/A,,Overcast,270,2012-11-02 05:15:00
1:35 AM,35.6,33.8,93,29.90,10.0,West,6.9,-,N/A,,Overcast,260,2012-11-02 05:35:00
1:55 AM,33.8,33.8,100,29.90,10.0,Calm,Calm,-,N/A,,Overcast,0,2012-11-02 05:55:00
2:15 AM,33.8,32.0,93,29.91,10.0,West,6.9,-,N/A,,Overcast,260,2012-11-02 06:15:00
2:35 AM,33.8,32.0,93,29.91,10.0,SW,3.5,-,N/A,,Overcast,220,2012-11-02 06:35:00
2:55 AM,33.8,32.0,93,29.92,10.0,West,9.2,-,N/A,,Overcast,260,2012-11-02 06:55:00
3:15 AM,33.8,32.0,93,29.91,10.0,West,9.2,-,N/A,,Overcast,260,2012-11-02 07:15:00
3:35 AM,33.8,32.0,93,29.91,10.0,WSW,10.4,-,N/A,,Overcast,240,2012-11-02 07:35:00
3:55 AM,32.0,32.0,100,29.91,10.0,Calm,Calm,-,N/A,,Overcast,0,2012-11-02 07:55:00
4:15 AM,32.0,32.0,100,29.91,10.0,Calm,Calm,-,N/A,,Overcast,0,2012-11-02 08:15:00
4:35 AM,32.0,32.0,100,29.91,10.0,Calm,Calm,-,N/A,,Overcast,0,2012-11-02 08:35:00
4:55 AM,32.0,32.0,100,29.91,10.0,Calm,Calm,-,N/A,,Overcast,0,2012-11-02 08:55:00
5:15 AM,32.0,32.0,100,29.90,10.0,Calm,Calm,-,N/A,,Overcast,0,2012-11-02 09:15:00
5:35 AM,32.0,32.0,100,29.91,10.0,Calm,Calm,-,N/A,,Overcast,0,2012-11-02 09:35:00
5:55 AM,32.0,32.0,100,29.91,10.0,Calm,Calm,-,N/A,,Overcast,0,2012-11-02 09:55:00
6:15 AM,32.0,32.0,100,29.92,10.0,SW,10.4,-,N/A,,Overcast,230,2012-11-02 10:15:00
6:35 AM,32.0,32.0,100,29.92,10.0,Calm,Calm,-,N/A,,Overcast,0,2012-11-02 10:35:00
6:55 AM,32.0,32.0,100,29.92,10.0,WSW,16.1,-,N/A,,Overcast,240,2012-11-02 10:55:00
7:15 AM,32.0,32.0,100,29.93,10.0,WSW,13.8,-,N/A,,Overcast,240,2012-11-02 11:15:00
7:35 AM,33.8,32.0,93,29.93,10.0,WSW,9.2,-,N/A,,Overcast,250,2012-11-02 11:35:00
7:55 AM,33.8,30.2,87,29.93,10.0,West,11.5,-,N/A,,Overcast,260,2012-11-02 11:55:00
8:15 AM,37.4,30.2,75,29.93,10.0,West,12.7,-,N/A,,Overcast,260,2012-11-02 12:15:00
8:35 AM,37.4,32.0,81,29.92,10.0,WSW,13.8,-,N/A,,Overcast,240,2012-11-02 12:35:00
8:55 AM,39.2,32.0,75,29.93,10.0,WSW,15.0,-,N/A,,Overcast,240,2012-11-02 12:55:00
9:15 AM,42.8,30.2,61,29.93,10.0,WSW,9.2,-,N/A,,Overcast,250,2012-11-02 13:15:00
9:35 AM,44.6,30.2,57,29.93,10.0,WSW,13.8,-,N/A,,Overcast,250,2012-11-02 13:35:00
9:55 AM,44.6,32.0,61,29.93,10.0,WSW,8.1,19.6,N/A,,Overcast,240,2012-11-02 13:55:00
10:15 AM,48.2,32.0,54,29.93,10.0,WSW,9.2,-,N/A,,Overcast,240,2012-11-02 14:15:00
10:35 AM,50.0,32.0,50,29.92,10.0,SW,9.2,-,N/A,,Overcast,230,2012-11-02 14:35:00
10:55 AM,53.6,32.0,44,29.91,10.0,WSW,10.4,-,N/A,,Overcast,240,2012-11-02 14:55:00
11:15 AM,57.2,32.0,38,29.91,10.0,SW,13.8,21.9,N/A,,Overcast,220,2012-11-02 15:15:00
11:35 AM,60.8,32.0,34,29.90,10.0,WSW,15.0,24.2,N/A,,Overcast,240,2012-11-02 15:35:00
11:55 AM,64.4,32.0,30,29.89,10.0,SW,21.9,28.8,N/A,,Overcast,230,2012-11-02 15:55:00
12:15 PM,62.6,32.0,32,29.88,10.0,SW,25.3,38.0,N/A,,Overcast,230,2012-11-02 16:15:00
12:35 PM,64.4,32.0,30,29.86,10.0,SW,24.2,35.7,N/A,,Overcast,230,2012-11-02 16:35:00
12:55 PM,62.6,32.0,32,29.86,10.0,WSW,25.3,35.7,N/A,,Overcast,240,2012-11-02 16:55:00
1:15 PM,66.2,33.8,30,29.84,10.0,WSW,27.6,38.0,N/A,,Overcast,250,2012-11-02 17:15:00
1:35 PM,66.2,33.8,30,29.83,10.0,SW,23.0,34.5,N/A,,Overcast,230,2012-11-02 17:35:00
1:55 PM,69.8,35.6,28,29.83,10.0,West,19.6,28.8,N/A,,Overcast,260,2012-11-02 17:55:00
2:15 PM,69.8,35.6,28,29.82,10.0,West,24.2,39.1,N/A,,Overcast,260,2012-11-02 18:15:00
2:35 PM,69.8,35.6,28,29.82,10.0,WSW,25.3,36.8,N/A,,Overcast,250,2012-11-02 18:35:00
2:55 PM,71.6,35.6,27,29.82,10.0,WSW,24.2,29.9,N/A,,Overcast,240,2012-11-02 18:55:00
3:15 PM,71.6,35.6,27,29.82,10.0,West,20.7,50.6,N/A,,Overcast,260,2012-11-02 19:15:00
3:35 PM,71.6,35.6,27,29.81,10.0,NW,13.8,29.9,N/A,,Overcast,310,2012-11-02 19:35:00
3:55 PM,71.6,35.6,27,29.81,10.0,NW,23.0,34.5,N/A,,Overcast,310,2012-11-02 19:55:00
4:15 PM,69.8,35.6,28,29.82,10.0,West,12.7,32.2,N/A,,Overcast,280,2012-11-02 20:15:00
4:35 PM,71.6,35.6,27,29.82,10.0,West,12.7,27.6,N/A,,Overcast,280,2012-11-02 20:35:00
4:55 PM,69.8,37.4,31,29.82,10.0,NNW,11.5,24.2,N/A,,Overcast,330,2012-11-02 20:55:00
5:15 PM,69.8,37.4,31,29.83,10.0,NW,8.1,20.7,N/A,,Overcast,310,2012-11-02 21:15:00
5:35 PM,66.2,37.4,35,29.83,10.0,NW,6.9,-,N/A,,Overcast,320,2012-11-02 21:35:00
5:55 PM,66.2,37.4,35,29.84,10.0,WSW,4.6,-,N/A,,Overcast,250,2012-11-02 21:55:00
6:15 PM,62.6,41.0,45,29.85,10.0,NNW,5.8,-,N/A,,Overcast,340,2012-11-02 22:15:00
6:35 PM,62.6,39.2,42,29.86,10.0,SW,3.5,-,N/A,,Overcast,220,2012-11-02 22:35:00
6:55 PM,57.2,42.8,59,29.87,10.0,NW,4.6,-,N/A,,Overcast,320,2012-11-02 22:55:00
7:15 PM,55.4,41.0,58,29.88,10.0,NNW,4.6,-,N/A,,Overcast,330,2012-11-02 23:15:00
7:35 PM,55.4,41.0,58,29.89,10.0,North,8.1,-,N/A,,Overcast,350,2012-11-02 23:35:00
7:55 PM,57.2,39.2,51,29.90,10.0,North,16.1,27.6,N/A,,Overcast,360,2012-11-02 23:55:00
8:35 PM,55.4,39.2,54,29.92,10.0,North,8.1,-,N/A,,Overcast,10,2012-11-03 00:35:00
8:55 PM,53.6,39.2,58,29.92,10.0,North,4.6,-,N/A,,Overcast,10,2012-11-03 00:55:00
9:15 PM,53.6,39.2,58,29.94,10.0,Calm,Calm,-,N/A,,Overcast,0,2012-11-03 01:15:00
9:35 PM,51.8,42.8,71,29.94,10.0,Calm,Calm,-,N/A,,Overcast,0,2012-11-03 01:35:00
9:55 PM,50.0,41.0,71,29.95,10.0,Calm,Calm,-,N/A,,Overcast,0,2012-11-03 01:55:00
10:35 PM,51.8,39.2,62,29.96,10.0,North,4.6,-,N/A,,Overcast,10,2012-11-03 02:35:00
10:55 PM,50.0,39.2,66,29.97,10.0,Calm,Calm,-,N/A,,Overcast,0,2012-11-03 02:55:00
11:15 PM,48.2,39.2,71,29.97,10.0,Calm,Calm,-,N/A,,Overcast,0,2012-11-03 03:15:00
11:35 PM,46.4,39.2,76,29.98,10.0,Calm,Calm,-,N/A,,Overcast,0,2012-11-03 03:35:00
11:55 PM,46.4,39.2,76,29.98,10.0,Calm,Calm,-,N/A,,Overcast,0,2012-11-03 03:55:00